Airfield :
LOGIN :

Register | Disclaimer

   EN    FR    IT 

 










Legend :    VFR   Marginal VFR   IFR   Intensive IFR   Very Intensive IFR
Visi :
Ceiling :
>= 8 km
>= 3000ft
5 to 8 km
1000 to 3000 ft
1500m to 5 km
500 to 1000 ft
800 to 1500m
200 to 500 ft
< 800m
< 200 ft
Symbols :   Thunderstorms  Fog  Heavy snow  Heavy precipitations  Wind > 20 kt
SIGMETs :     Misc.  Thunderstorms  Icing  Turbulence  Mountain Waves  Volcanic Ashes







- Airport Elevation : 126 ft
- IATA code : WIC
- Download approach charts


EGPC - Wick

EXPIRED METARs :
  • 181920Z AUTO 29013KT 9999 NCD 13/12 Q0991
  • 181850Z AUTO 30013KT 9999 NCD 14/12 Q0990
  • 181820Z AUTO 29013KT 9999 FEW019/// 14/12 Q0990
  • 181750Z AUTO 29013KT 9999 FEW017/// 15/12 Q0989
  • 181720Z AUTO 30015KT 9999 FEW016/// 15/12 Q0989
  • 181650Z AUTO 30013KT 9999 FEW017/// 16/12 Q0989

Expired Forecast.
ATIS : +44 1955 607 596
No reported NOTAMs for that airfield.



MET'MAP, your aeronautical weather chart ! - Copyright ORBIFLY December 2007 - Disclaimer

ORBIFLY MET'MAP TEAM :

Programming & Development : Alexandra Zaïnal
Concept & Development : Baudouin d'Aumeries
Co-Development & Prog : Marc-Olivier Méhu
Technical & hardware support : Manuel Goepfert

Contact : metmap@orbifly.com




SOURCES & CREDITS :

   NOAA